Weather at Decatur Municipal Airport

Public forecast

Using degrees Fahrenheit for public forecast. Weather courtesy of forecast.io.

Current aviation weather report (METAR) for Decatur Municipal Airport

Retrieved 2021/10/15 23:35 UTC (22 minutes ago):

KLUD 152335Z AUTO 34007KT 300V010 10SM CLR 19/06 A3016 RMK AO2 T01880060

Closest aviation forecast (TAF) to Decatur Municipal Airport

Closest forecast is Fort Worth Alliance Airport, 20.7 nm (38.4 km) SE. Retrieved 2021/10/15 18:22 UTC (6 hours ago):

TAF KAFW 151720Z 1518/1618 33013G23KT P6SM BKN018 TEMPO 1518/1519 FEW018 BKN030 FM151900 34018G28KT P6SM FEW035 FM160000 35015KT P6SM SKC FM160600 36007KT P6SM SKC